sensor_id;sensor_type;location;lat;lon;timestamp;pressure;altitude;pressure_sealevel;temperature;humidity
21863;BME280;11096;51.338;12.524;2023-03-03T00:02:25;100764.44;;;2.01;nan
21863;BME280;11096;51.338;12.524;2023-03-03T00:04:51;100763.59;;;1.63;nan
21863;BME280;11096;51.338;12.524;2023-03-03T00:07:16;100756.72;;;1.65;nan
21863;BME280;11096;51.338;12.524;2023-03-03T00:09:47;100755.91;;;1.63;nan
21863;BME280;11096;51.338;12.524;2023-03-03T00:14:49;100760.97;;;1.65;nan
21863;BME280;11096;51.338;12.524;2023-03-03T00:17:28;100765.31;;;1.63;nan
21863;BME280;11096;51.338;12.524;2023-03-03T00:19:54;100756.28;;;1.46;nan
21863;BME280;11096;51.338;12.524;2023-03-03T00:22:34;100761.59;;;1.37;nan
21863;BME280;11096;51.338;12.524;2023-03-03T00:27:45;100749.47;;;1.45;nan
21863;BME280;11096;51.338;12.524;2023-03-03T00:30:29;100759.84;;;1.38;nan
21863;BME280;11096;51.338;12.524;2023-03-03T00:32:54;100756.38;;;1.42;nan
21863;BME280;11096;51.338;12.524;2023-03-03T00:37:52;100751.34;;;1.37;nan
21863;BME280;11096;51.338;12.524;2023-03-03T00:40:44;100748.03;;;1.32;nan
21863;BME280;11096;51.338;12.524;2023-03-03T00:43:30;100749.03;;;1.26;nan
21863;BME280;11096;51.338;12.524;2023-03-03T00:45:58;100759.56;;;1.52;nan
21863;BME280;11096;51.338;12.524;2023-03-03T00:48:44;100762.03;;;1.58;nan
21863;BME280;11096;51.338;12.524;2023-03-03T00:53:51;100766.06;;;1.68;nan
21863;BME280;11096;51.338;12.524;2023-03-03T00:56:17;100759.38;;;1.61;nan
21863;BME280;11096;51.338;12.524;2023-03-03T00:58:42;100759.38;;;1.61;nan
21863;BME280;11096;51.338;12.524;2023-03-03T01:01:13;100768.72;;;1.63;nan
21863;BME280;11096;51.338;12.524;2023-03-03T01:03:38;100758.66;;;1.56;nan
21863;BME280;11096;51.338;12.524;2023-03-03T01:06:04;100765.31;;;1.63;nan
21863;BME280;11096;51.338;12.524;2023-03-03T01:08:30;100760.97;;;1.65;nan
21863;BME280;11096;51.338;12.524;2023-03-03T01:10:57;100764.88;;;1.44;nan
21863;BME280;11096;51.338;12.524;2023-03-03T01:13:29;100759.22;;;1.68;nan
21863;BME280;11096;51.338;12.524;2023-03-03T01:15:55;100761.06;;;1.62;nan
21863;BME280;11096;51.338;12.524;2023-03-03T01:18:21;100761.84;;;1.65;nan
21863;BME280;11096;51.338;12.524;2023-03-03T01:20:46;100760.66;;;1.41;nan
21863;BME280;11096;51.338;12.524;2023-03-03T01:23:12;100756.72;;;1.25;nan
21863;BME280;11096;51.338;12.524;2023-03-03T01:25:38;100747.66;;;1.50;nan
21863;BME280;11096;51.338;12.524;2023-03-03T01:28:04;100750.25;;;1.49;nan
21863;BME280;11096;51.338;12.524;2023-03-03T01:30:30;100752.81;;;1.47;nan
21863;BME280;11096;51.338;12.524;2023-03-03T01:32:56;100750.84;;;1.21;nan
21863;BME280;11096;51.338;12.524;2023-03-03T01:35:22;100755.91;;;1.23;nan
21863;BME280;11096;51.338;12.524;2023-03-03T01:37:47;100744.72;;;1.28;nan
21863;BME280;11096;51.338;12.524;2023-03-03T01:40:20;100742.81;;;1.38;nan
21863;BME280;11096;51.338;12.524;2023-03-03T01:42:46;100737.69;;;1.38;nan
21863;BME280;11096;51.338;12.524;2023-03-03T01:47:45;100745.31;;;1.40;nan
21863;BME280;11096;51.338;12.524;2023-03-03T01:50:14;100746.84;;;1.48;nan
21863;BME280;11096;51.338;12.524;2023-03-03T01:52:45;100745.88;;;1.53;nan
21863;BME280;11096;51.338;12.524;2023-03-03T01:55:28;100742.56;;;1.49;nan
21863;BME280;11096;51.338;12.524;2023-03-03T01:58:07;100749.53;;;1.42;nan
21863;BME280;11096;51.338;12.524;2023-03-03T02:00:35;100739.94;;;1.12;nan
21863;BME280;11096;51.338;12.524;2023-03-03T02:03:02;100748.69;;;1.42;nan
21863;BME280;11096;51.338;12.524;2023-03-03T02:05:28;100748.94;;;1.31;nan
21863;BME280;11096;51.338;12.524;2023-03-03T02:07:54;100743.50;;;1.04;nan
21863;BME280;11096;51.338;12.524;2023-03-03T02:10:20;100745.16;;;1.05;nan
21863;BME280;11096;51.338;12.524;2023-03-03T02:12:54;100751.44;;;0.91;nan
21863;BME280;11096;51.338;12.524;2023-03-03T02:15:32;100761.50;;;0.98;nan
21863;BME280;11096;51.338;12.524;2023-03-03T02:18:07;100756.19;;;1.09;nan
21863;BME280;11096;51.338;12.524;2023-03-03T02:23:32;100756.78;;;1.22;nan
21863;BME280;11096;51.338;12.524;2023-03-03T02:26:11;100762.84;;;1.18;nan
21863;BME280;11096;51.338;12.524;2023-03-03T02:28:38;100756.84;;;1.19;nan
21863;BME280;11096;51.338;12.524;2023-03-03T02:31:10;100760.91;;;1.29;nan
21863;BME280;11096;51.338;12.524;2023-03-03T02:33:38;100757.81;;;1.13;nan
21863;BME280;11096;51.338;12.524;2023-03-03T02:36:04;100753.56;;;1.14;nan
21863;BME280;11096;51.338;12.524;2023-03-03T02:38:52;100755.13;;;1.21;nan
21863;BME280;11096;51.338;12.524;2023-03-03T02:44:07;100753.31;;;1.24;nan
21863;BME280;11096;51.338;12.524;2023-03-03T02:46:39;100759.41;;;1.19;nan
21863;BME280;11096;51.338;12.524;2023-03-03T02:49:06;100763.84;;;1.11;nan
21863;BME280;11096;51.338;12.524;2023-03-03T02:51:33;100759.44;;;1.17;nan
21863;BME280;11096;51.338;12.524;2023-03-03T02:53:58;100751.84;;;1.14;nan
21863;BME280;11096;51.338;12.524;2023-03-03T02:56:24;100753.06;;;0.95;nan
21863;BME280;11096;51.338;12.524;2023-03-03T02:58:49;100756.19;;;1.09;nan
21863;BME280;11096;51.338;12.524;2023-03-03T03:01:15;100752.00;;;1.06;nan
21863;BME280;11096;51.338;12.524;2023-03-03T03:03:40;100738.34;;;1.06;nan
21863;BME280;11096;51.338;12.524;2023-03-03T03:06:06;100746.81;;;1.10;nan
21863;BME280;11096;51.338;12.524;2023-03-03T03:08:32;100732.69;;;0.90;nan
21863;BME280;11096;51.338;12.524;2023-03-03T03:10:57;100730.06;;;0.93;nan
21863;BME280;11096;51.338;12.524;2023-03-03T03:13:23;100722.22;;;1.01;nan
21863;BME280;11096;51.338;12.524;2023-03-03T03:15:49;100720.53;;;1.00;nan
21863;BME280;11096;51.338;12.524;2023-03-03T03:18:15;100706.16;;;0.94;nan
21863;BME280;11096;51.338;12.524;2023-03-03T03:20:41;100721.53;;;0.94;nan
21863;BME280;11096;51.338;12.524;2023-03-03T03:23:08;100727.53;;;0.92;nan
21863;BME280;11096;51.338;12.524;2023-03-03T03:25:33;100719.22;;;0.82;nan
21863;BME280;11096;51.338;12.524;2023-03-03T03:28:00;100742.16;;;0.85;nan
21863;BME280;11096;51.338;12.524;2023-03-03T03:30:26;100748.19;;;0.81;nan
21863;BME280;11096;51.338;12.524;2023-03-03T03:32:51;100751.50;;;0.86;nan
21863;BME280;11096;51.338;12.524;2023-03-03T03:35:17;100755.69;;;0.92;nan
21863;BME280;11096;51.338;12.524;2023-03-03T03:37:43;100763.44;;;0.87;nan
21863;BME280;11096;51.338;12.524;2023-03-03T03:40:09;100767.06;;;0.77;nan
21863;BME280;11096;51.338;12.524;2023-03-03T03:42:35;100765.34;;;0.77;nan
21863;BME280;11096;51.338;12.524;2023-03-03T03:45:01;100767.81;;;0.82;nan
21863;BME280;11096;51.338;12.524;2023-03-03T03:47:27;100763.63;;;0.76;nan
21863;BME280;11096;51.338;12.524;2023-03-03T03:49:52;100760.22;;;0.77;nan
21863;BME280;11096;51.338;12.524;2023-03-03T03:52:17;100755.03;;;0.82;nan
21863;BME280;11096;51.338;12.524;2023-03-03T03:54:43;100757.34;;;0.94;nan
21863;BME280;11096;51.338;12.524;2023-03-03T03:57:08;100750.53;;;0.93;nan
21863;BME280;11096;51.338;12.524;2023-03-03T03:59:34;100753.09;;;0.93;nan
21863;BME280;11096;51.338;12.524;2023-03-03T04:01:59;100756.75;;;0.80;nan
21863;BME280;11096;51.338;12.524;2023-03-03T04:04:24;100764.31;;;0.86;nan
21863;BME280;11096;51.338;12.524;2023-03-03T04:06:50;100771.19;;;0.84;nan
21863;BME280;11096;51.338;12.524;2023-03-03T04:09:15;100774.75;;;0.77;nan
21863;BME280;11096;51.338;12.524;2023-03-03T04:11:41;100778.13;;;0.77;nan
21863;BME280;11096;51.338;12.524;2023-03-03T04:14:06;100769.66;;;0.74;nan
21863;BME280;11096;51.338;12.524;2023-03-03T04:16:32;100770.84;;;0.56;nan
21863;BME280;11096;51.338;12.524;2023-03-03T04:18:58;100772.78;;;0.41;nan
21863;BME280;11096;51.338;12.524;2023-03-03T04:21:23;100775.66;;;0.71;nan
21863;BME280;11096;51.338;12.524;2023-03-03T04:23:49;100776.34;;;0.81;nan
21863;BME280;11096;51.338;12.524;2023-03-03T04:26:14;100777.53;;;0.61;nan
21863;BME280;11096;51.338;12.524;2023-03-03T04:28:40;100783.81;;;0.45;nan
21863;BME280;11096;51.338;12.524;2023-03-03T04:31:05;100789.00;;;0.42;nan
21863;BME280;11096;51.338;12.524;2023-03-03T04:33:31;100785.06;;;0.71;nan
21863;BME280;11096;51.338;12.524;2023-03-03T04:35:56;100779.72;;;0.84;nan
21863;BME280;11096;51.338;12.524;2023-03-03T04:38:22;100779.78;;;0.80;nan
21863;BME280;11096;51.338;12.524;2023-03-03T04:40:47;100780.63;;;0.80;nan
21863;BME280;11096;51.338;12.524;2023-03-03T04:43:13;100784.00;;;0.84;nan
21863;BME280;11096;51.338;12.524;2023-03-03T04:45:38;100790.91;;;0.77;nan
21863;BME280;11096;51.338;12.524;2023-03-03T04:48:04;100783.94;;;0.85;nan
21863;BME280;11096;51.338;12.524;2023-03-03T04:50:30;100790.72;;;0.88;nan
21863;BME280;11096;51.338;12.524;2023-03-03T04:52:55;100779.56;;;0.92;nan
21863;BME280;11096;51.338;12.524;2023-03-03T04:55:21;100767.66;;;0.91;nan
21863;BME280;11096;51.338;12.524;2023-03-03T04:57:46;100778.72;;;0.92;nan
21863;BME280;11096;51.338;12.524;2023-03-03T05:00:14;100777.22;;;0.81;nan
21863;BME280;11096;51.338;12.524;2023-03-03T05:02:41;100784.09;;;0.78;nan
21863;BME280;11096;51.338;12.524;2023-03-03T05:05:07;100783.38;;;0.70;nan
21863;BME280;11096;51.338;12.524;2023-03-03T05:07:38;100780.78;;;0.73;nan
21863;BME280;11096;51.338;12.524;2023-03-03T05:10:04;100785.19;;;0.64;nan
21863;BME280;11096;51.338;12.524;2023-03-03T05:12:29;100786.72;;;0.75;nan
21863;BME280;11096;51.338;12.524;2023-03-03T05:14:54;100785.81;;;0.77;nan
21863;BME280;11096;51.338;12.524;2023-03-03T05:17:20;100786.66;;;0.76;nan
21863;BME280;11096;51.338;12.524;2023-03-03T05:19:45;100791.69;;;0.81;nan
21863;BME280;11096;51.338;12.524;2023-03-03T05:22:11;100792.81;;;0.66;nan
21863;BME280;11096;51.338;12.524;2023-03-03T05:24:36;100791.84;;;0.73;nan
21863;BME280;11096;51.338;12.524;2023-03-03T05:27:01;100795.13;;;0.80;nan
21863;BME280;11096;51.338;12.524;2023-03-03T05:29:28;100811.53;;;0.68;nan
21863;BME280;11096;51.338;12.524;2023-03-03T05:31:56;100804.78;;;0.66;nan
21863;BME280;11096;51.338;12.524;2023-03-03T05:34:21;100800.34;;;0.74;nan
21863;BME280;11096;51.338;12.524;2023-03-03T05:36:47;100801.16;;;0.77;nan
21863;BME280;11096;51.338;12.524;2023-03-03T05:39:12;100804.56;;;0.76;nan
21863;BME280;11096;51.338;12.524;2023-03-03T05:41:37;100790.19;;;0.71;nan
21863;BME280;11096;51.338;12.524;2023-03-03T05:44:03;100797.84;;;0.72;nan
21863;BME280;11096;51.338;12.524;2023-03-03T05:46:28;100788.38;;;0.76;nan
21863;BME280;11096;51.338;12.524;2023-03-03T05:48:54;100788.44;;;0.73;nan
21863;BME280;11096;51.338;12.524;2023-03-03T05:51:19;100782.41;;;0.77;nan
21863;BME280;11096;51.338;12.524;2023-03-03T05:53:44;100780.69;;;0.77;nan
21863;BME280;11096;51.338;12.524;2023-03-03T05:56:10;100779.88;;;0.74;nan
21863;BME280;11096;51.338;12.524;2023-03-03T05:58:35;100781.59;;;0.75;nan
21863;BME280;11096;51.338;12.524;2023-03-03T06:01:00;100783.47;;;0.63;nan
21863;BME280;11096;51.338;12.524;2023-03-03T06:03:26;100791.22;;;0.62;nan
21863;BME280;11096;51.338;12.524;2023-03-03T06:05:52;100789.69;;;0.52;nan
21863;BME280;11096;51.338;12.524;2023-03-03T06:08:17;100799.72;;;0.61;nan
21863;BME280;11096;51.338;12.524;2023-03-03T06:10:43;100811.47;;;0.71;nan
21863;BME280;11096;51.338;12.524;2023-03-03T06:13:08;100817.34;;;0.78;nan
21863;BME280;11096;51.338;12.524;2023-03-03T06:15:34;100815.81;;;0.68;nan
21863;BME280;11096;51.338;12.524;2023-03-03T06:17:59;100821.69;;;0.74;nan
21863;BME280;11096;51.338;12.524;2023-03-03T06:20:25;100824.16;;;0.79;nan
21863;BME280;11096;51.338;12.524;2023-03-03T06:22:50;100828.34;;;0.83;nan
21863;BME280;11096;51.338;12.524;2023-03-03T06:25:15;100826.03;;;0.69;nan
21863;BME280;11096;51.338;12.524;2023-03-03T06:27:41;100832.97;;;0.62;nan
21863;BME280;11096;51.338;12.524;2023-03-03T06:30:07;100824.19;;;0.76;nan
21863;BME280;11096;51.338;12.524;2023-03-03T06:32:32;100827.66;;;0.73;nan
21863;BME280;11096;51.338;12.524;2023-03-03T06:34:58;100829.38;;;0.71;nan
21863;BME280;11096;51.338;12.524;2023-03-03T06:37:23;100824.03;;;0.85;nan
21863;BME280;11096;51.338;12.524;2023-03-03T06:39:49;100821.53;;;0.82;nan
21863;BME280;11096;51.338;12.524;2023-03-03T06:42:16;100812.44;;;0.67;nan
21863;BME280;11096;51.338;12.524;2023-03-03T06:44:43;100816.09;;;0.52;nan
21863;BME280;11096;51.338;12.524;2023-03-03T06:47:08;100819.19;;;0.70;nan
21863;BME280;11096;51.338;12.524;2023-03-03T06:49:34;100815.59;;;0.80;nan
21863;BME280;11096;51.338;12.524;2023-03-03T06:52:01;100822.31;;;0.85;nan
21863;BME280;11096;51.338;12.524;2023-03-03T06:54:34;100832.47;;;0.92;nan
21863;BME280;11096;51.338;12.524;2023-03-03T06:57:16;100832.25;;;1.02;nan
21863;BME280;11096;51.338;12.524;2023-03-03T06:59:47;100834.28;;;0.85;nan
21863;BME280;11096;51.338;12.524;2023-03-03T07:02:16;100847.22;;;0.76;nan
21863;BME280;11096;51.338;12.524;2023-03-03T07:04:42;100858.06;;;0.90;nan
21863;BME280;11096;51.338;12.524;2023-03-03T07:07:23;100849.19;;;1.10;nan
21863;BME280;11096;51.338;12.524;2023-03-03T07:09:52;100855.97;;;1.11;nan
21863;BME280;11096;51.338;12.524;2023-03-03T07:12:24;100854.38;;;1.06;nan
21863;BME280;11096;51.338;12.524;2023-03-03T07:17:35;100860.44;;;1.01;nan
21863;BME280;11096;51.338;12.524;2023-03-03T07:20:16;100859.50;;;1.06;nan
21863;BME280;11096;51.338;12.524;2023-03-03T07:22:42;100866.28;;;1.07;nan
21863;BME280;11096;51.338;12.524;2023-03-03T07:25:25;100868.03;;;1.05;nan
21863;BME280;11096;51.338;12.524;2023-03-03T07:27:52;100873.00;;;1.13;nan
21863;BME280;11096;51.338;12.524;2023-03-03T07:30:24;100867.09;;;1.11;nan
21863;BME280;11096;51.338;12.524;2023-03-03T07:32:52;100869.47;;;1.20;nan
21863;BME280;11096;51.338;12.524;2023-03-03T07:35:38;100883.25;;;1.13;nan
21863;BME280;11096;51.338;12.524;2023-03-03T07:38:36;100881.50;;;1.17;nan
21863;BME280;11096;51.338;12.524;2023-03-03T07:41:09;100895.19;;;1.16;nan
21863;BME280;11096;51.338;12.524;2023-03-03T07:43:45;100894.22;;;1.20;nan
21863;BME280;11096;51.338;12.524;2023-03-03T07:46:48;100896.72;;;1.23;nan
21863;BME280;11096;51.338;12.524;2023-03-03T07:49:33;100891.78;;;1.14;nan
21863;BME280;11096;51.338;12.524;2023-03-03T07:52:00;100884.06;;;1.15;nan
21863;BME280;11096;51.338;12.524;2023-03-03T07:54:29;100886.16;;;1.40;nan
21863;BME280;11096;51.338;12.524;2023-03-03T07:57:14;100885.97;;;1.50;nan
21863;BME280;11096;51.338;12.524;2023-03-03T07:59:48;100889.44;;;1.48;nan
21863;BME280;11096;51.338;12.524;2023-03-03T08:02:40;100896.09;;;1.57;nan
21863;BME280;11096;51.338;12.524;2023-03-03T08:05:30;100894.00;;;1.32;nan
21863;BME280;11096;51.338;12.524;2023-03-03T08:08:28;100896.63;;;1.27;nan
21863;BME280;11096;51.338;12.524;2023-03-03T08:10:56;100895.19;;;1.16;nan
21863;BME280;11096;51.338;12.524;2023-03-03T08:13:25;100884.94;;;1.16;nan
21863;BME280;11096;51.338;12.524;2023-03-03T08:16:23;100880.28;;;0.88;nan
21863;BME280;11096;51.338;12.524;2023-03-03T08:18:45;100881.91;;;0.92;nan
21863;BME280;11096;51.338;12.524;2023-03-03T08:21:24;100888.41;;;1.12;nan
21863;BME280;11096;51.338;12.524;2023-03-03T08:23:51;100900.50;;;1.03;nan
21863;BME280;11096;51.338;12.524;2023-03-03T08:26:21;100892.97;;;0.94;nan
21863;BME280;11096;51.338;12.524;2023-03-03T08:28:47;100889.38;;;1.04;nan
21863;BME280;11096;51.338;12.524;2023-03-03T08:31:13;100894.97;;;1.25;nan
21863;BME280;11096;51.338;12.524;2023-03-03T08:33:39;100892.94;;;1.44;nan
21863;BME280;11096;51.338;12.524;2023-03-03T08:36:06;100885.91;;;1.54;nan
21863;BME280;11096;51.338;12.524;2023-03-03T08:38:32;100889.09;;;1.65;nan
21863;BME280;11096;51.338;12.524;2023-03-03T08:40:57;100890.63;;;1.75;nan
21863;BME280;11096;51.338;12.524;2023-03-03T08:43:22;100891.66;;;1.65;nan
21863;BME280;11096;51.338;12.524;2023-03-03T08:45:50;100899.91;;;1.79;nan
21863;BME280;11096;51.338;12.524;2023-03-03T08:48:16;100894.84;;;1.76;nan
21863;BME280;11096;51.338;12.524;2023-03-03T08:50:43;100900.81;;;1.77;nan
21863;BME280;11096;51.338;12.524;2023-03-03T08:53:09;100904.03;;;1.86;nan
21863;BME280;11096;51.338;12.524;2023-03-03T08:55:35;100905.84;;;1.81;nan
21863;BME280;11096;51.338;12.524;2023-03-03T08:58:01;100907.16;;;1.99;nan
21863;BME280;11096;51.338;12.524;2023-03-03T09:00:26;100911.66;;;2.28;nan
21863;BME280;11096;51.338;12.524;2023-03-03T09:02:52;100906.94;;;2.49;nan
21863;BME280;11096;51.338;12.524;2023-03-03T09:05:19;100909.19;;;2.25;nan
21863;BME280;11096;51.338;12.524;2023-03-03T09:07:46;100910.06;;;2.24;nan
21863;BME280;11096;51.338;12.524;2023-03-03T09:10:15;100915.75;;;2.37;nan
21863;BME280;11096;51.338;12.524;2023-03-03T09:12:47;100911.66;;;2.28;nan
21863;BME280;11096;51.338;12.524;2023-03-03T09:15:20;100915.19;;;2.24;nan
21863;BME280;11096;51.338;12.524;2023-03-03T09:17:47;100913.69;;;2.14;nan
21863;BME280;11096;51.338;12.524;2023-03-03T09:20:37;100914.28;;;2.27;nan
21863;BME280;11096;51.338;12.524;2023-03-03T09:23:36;100901.13;;;2.03;nan
21863;BME280;11096;51.338;12.524;2023-03-03T09:28:39;100901.28;;;2.34;nan
21863;BME280;11096;51.338;12.524;2023-03-03T09:31:20;100904.59;;;2.40;nan
21863;BME280;11096;51.338;12.524;2023-03-03T09:33:47;100908.41;;;2.59;nan
21863;BME280;11096;51.338;12.524;2023-03-03T09:42:17;100914.72;;;2.82;nan
21863;BME280;11096;51.338;12.524;2023-03-03T09:59:17;100908.44;;;2.20;nan
21863;BME280;11096;51.338;12.524;2023-03-03T10:01:57;100909.81;;;2.72;nan
21863;BME280;11096;51.338;12.524;2023-03-03T10:04:45;100901.66;;;2.91;nan
21863;BME280;11096;51.338;12.524;2023-03-03T10:07:34;100903.91;;;2.69;nan
21863;BME280;11096;51.338;12.524;2023-03-03T10:18:27;100914.28;;;3.33;nan
21863;BME280;11096;51.338;12.524;2023-03-03T10:21:10;100921.09;;;3.34;nan
21863;BME280;11096;51.338;12.524;2023-03-03T10:26:50;100921.31;;;3.25;nan
21863;BME280;11096;51.338;12.524;2023-03-03T10:29:39;100922.09;;;3.28;nan
21863;BME280;11096;51.338;12.524;2023-03-03T10:32:28;100917.72;;;3.32;nan
21863;BME280;11096;51.338;12.524;2023-03-03T10:46:27;100914.44;;;3.58;nan
21863;BME280;11096;51.338;12.524;2023-03-03T10:55:02;100916.56;;;3.75;nan
21863;BME280;11096;51.338;12.524;2023-03-03T10:57:44;100915.78;;;3.71;nan
21863;BME280;11096;51.338;12.524;2023-03-03T11:00:33;100925.28;;;3.38;nan
21863;BME280;11096;51.338;12.524;2023-03-03T11:05:59;100910.66;;;3.40;nan
21863;BME280;11096;51.338;12.524;2023-03-03T11:08:41;100911.13;;;3.21;nan
21863;BME280;11096;51.338;12.524;2023-03-03T11:11:17;100905.69;;;3.65;nan
21863;BME280;11096;51.338;12.524;2023-03-03T11:14:36;100910.81;;;3.65;nan
21863;BME280;11096;51.338;12.524;2023-03-03T11:16:53;100909.00;;;3.69;nan
21863;BME280;11096;51.338;12.524;2023-03-03T11:19:54;100905.66;;;3.35;nan
21863;BME280;11096;51.338;12.524;2023-03-03T11:25:36;100900.09;;;3.49;nan
21863;BME280;11096;51.338;12.524;2023-03-03T11:34:38;100906.72;;;3.59;nan
21863;BME280;11096;51.338;12.524;2023-03-03T11:36:52;100905.53;;;3.40;nan
21863;BME280;11096;51.338;12.524;2023-03-03T11:39:22;100906.81;;;3.23;nan
21863;BME280;11096;51.338;12.524;2023-03-03T11:44:46;100905.91;;;3.57;nan
21863;BME280;11096;51.338;12.524;2023-03-03T11:47:24;100904.25;;;3.23;nan
21863;BME280;11096;51.338;12.524;2023-03-03T11:49:59;100916.84;;;3.33;nan
21863;BME280;11096;51.338;12.524;2023-03-03T11:55:29;100914.59;;;3.52;nan
21863;BME280;11096;51.338;12.524;2023-03-03T11:58:26;100909.53;;;3.50;nan
21863;BME280;11096;51.338;12.524;2023-03-03T12:01:16;100902.25;;;3.35;nan
21863;BME280;11096;51.338;12.524;2023-03-03T12:03:53;100896.09;;;3.40;nan
21863;BME280;11096;51.338;12.524;2023-03-03T12:16:48;100882.13;;;3.49;nan
21863;BME280;11096;51.338;12.524;2023-03-03T12:19:33;100884.22;;;3.66;nan
21863;BME280;11096;51.338;12.524;2023-03-03T12:22:27;100877.00;;;3.79;nan
21863;BME280;11096;51.338;12.524;2023-03-03T12:25:04;100870.63;;;3.92;nan
21863;BME280;11096;51.338;12.524;2023-03-03T12:27:57;100867.69;;;4.04;nan
21863;BME280;11096;51.338;12.524;2023-03-03T12:33:15;100876.00;;;4.13;nan
21863;BME280;11096;51.338;12.524;2023-03-03T12:41:06;100863.94;;;3.86;nan
21863;BME280;11096;51.338;12.524;2023-03-03T12:46:32;100867.84;;;3.98;nan
21863;BME280;11096;51.338;12.524;2023-03-03T12:48:59;100863.28;;;3.80;nan
21863;BME280;11096;51.338;12.524;2023-03-03T13:02:38;100849.44;;;4.12;nan
21863;BME280;11096;51.338;12.524;2023-03-03T13:05:30;100844.00;;;3.93;nan
21863;BME280;11096;51.338;12.524;2023-03-03T13:10:42;100845.34;;;4.06;nan
21863;BME280;11096;51.338;12.524;2023-03-03T13:16:12;100826.41;;;4.09;nan
21863;BME280;11096;51.338;12.524;2023-03-03T13:24:12;100830.66;;;4.63;nan
21863;BME280;11096;51.338;12.524;2023-03-03T13:29:55;100833.28;;;4.62;nan
21863;BME280;11096;51.338;12.524;2023-03-03T13:32:21;100836.66;;;4.37;nan
21863;BME280;11096;51.338;12.524;2023-03-03T13:37:42;100834.31;;;4.56;nan
21863;BME280;11096;51.338;12.524;2023-03-03T13:42:44;100834.13;;;4.36;nan
21863;BME280;11096;51.338;12.524;2023-03-03T13:47:45;100831.00;;;4.26;nan
21863;BME280;11096;51.338;12.524;2023-03-03T13:50:21;100840.50;;;4.24;nan
21863;BME280;11096;51.338;12.524;2023-03-03T13:55:28;100835.91;;;4.05;nan
21863;BME280;11096;51.338;12.524;2023-03-03T13:58:24;100826.06;;;4.20;nan
21863;BME280;11096;51.338;12.524;2023-03-03T14:01:11;100821.88;;;3.89;nan
21863;BME280;11096;51.338;12.524;2023-03-03T14:06:19;100809.97;;;4.13;nan
21863;BME280;11096;51.338;12.524;2023-03-03T14:09:21;100809.19;;;4.11;nan
21863;BME280;11096;51.338;12.524;2023-03-03T14:11:46;100808.53;;;4.04;nan
21863;BME280;11096;51.338;12.524;2023-03-03T14:16:57;100799.63;;;3.58;nan
21863;BME280;11096;51.338;12.524;2023-03-03T14:20:01;100792.69;;;3.62;nan
21863;BME280;11096;51.338;12.524;2023-03-03T14:22:39;100782.88;;;3.75;nan
21863;BME280;11096;51.338;12.524;2023-03-03T14:25:09;100787.19;;;3.74;nan
21863;BME280;11096;51.338;12.524;2023-03-03T14:30:36;100786.13;;;3.52;nan
21863;BME280;11096;51.338;12.524;2023-03-03T14:38:22;100783.72;;;3.75;nan
21863;BME280;11096;51.338;12.524;2023-03-03T14:40:48;100784.50;;;3.77;nan
21863;BME280;11096;51.338;12.524;2023-03-03T14:43:36;100779.22;;;3.82;nan
21863;BME280;11096;51.338;12.524;2023-03-03T14:48:56;100783.16;;;3.65;nan
21863;BME280;11096;51.338;12.524;2023-03-03T14:51:26;100773.31;;;3.78;nan
21863;BME280;11096;51.338;12.524;2023-03-03T14:53:54;100776.72;;;3.79;nan
21863;BME280;11096;51.338;12.524;2023-03-03T14:56:22;100772.94;;;3.91;nan
21863;BME280;11096;51.338;12.524;2023-03-03T14:58:50;100768.97;;;3.80;nan
21863;BME280;11096;51.338;12.524;2023-03-03T15:01:34;100772.69;;;3.72;nan
21863;BME280;11096;51.338;12.524;2023-03-03T15:04:22;100772.94;;;3.91;nan
21863;BME280;11096;51.338;12.524;2023-03-03T15:06:50;100767.25;;;3.81;nan
21863;BME280;11096;51.338;12.524;2023-03-03T15:11:52;100775.56;;;3.61;nan
21863;BME280;11096;51.338;12.524;2023-03-03T15:14:28;100778.38;;;3.53;nan
21863;BME280;11096;51.338;12.524;2023-03-03T15:16:56;100779.03;;;3.60;nan
21863;BME280;11096;51.338;12.524;2023-03-03T15:19:43;100775.06;;;3.50;nan
21863;BME280;11096;51.338;12.524;2023-03-03T15:22:15;100782.59;;;3.54;nan
21863;BME280;11096;51.338;12.524;2023-03-03T15:25:00;100777.34;;;3.59;nan
21863;BME280;11096;51.338;12.524;2023-03-03T15:27:40;100777.53;;;3.53;nan
21863;BME280;11096;51.338;12.524;2023-03-03T15:30:29;100774.06;;;3.54;nan
21863;BME280;11096;51.338;12.524;2023-03-03T15:35:53;100769.84;;;3.51;nan
21863;BME280;11096;51.338;12.524;2023-03-03T15:38:42;100771.13;;;3.07;nan
21863;BME280;11096;51.338;12.524;2023-03-03T15:41:36;100764.63;;;3.25;nan
21863;BME280;11096;51.338;12.524;2023-03-03T15:44:14;100771.81;;;3.43;nan
21863;BME280;11096;51.338;12.524;2023-03-03T15:46:57;100765.75;;;3.46;nan
21863;BME280;11096;51.338;12.524;2023-03-03T15:49:49;100769.16;;;3.46;nan
21863;BME280;11096;51.338;12.524;2023-03-03T15:55:12;100762.56;;;3.37;nan
21863;BME280;11096;51.338;12.524;2023-03-03T16:03:18;100767.66;;;3.39;nan
21863;BME280;11096;51.338;12.524;2023-03-03T16:06:05;100770.22;;;3.39;nan
21863;BME280;11096;51.338;12.524;2023-03-03T16:11:36;100767.38;;;3.18;nan
21863;BME280;11096;51.338;12.524;2023-03-03T16:28:04;100757.44;;;3.08;nan
21863;BME280;11096;51.338;12.524;2023-03-03T16:30:40;100766.59;;;3.16;nan
21863;BME280;11096;51.338;12.524;2023-03-03T16:38:59;100772.63;;;3.15;nan
21863;BME280;11096;51.338;12.524;2023-03-03T16:44:30;100774.38;;;3.13;nan
21863;BME280;11096;51.338;12.524;2023-03-03T16:47:43;100772.31;;;2.95;nan
21863;BME280;11096;51.338;12.524;2023-03-03T16:50:26;100774.00;;;2.96;nan
21863;BME280;11096;51.338;12.524;2023-03-03T16:58:47;100772.53;;;2.87;nan
21863;BME280;11096;51.338;12.524;2023-03-03T17:01:28;100778.59;;;2.85;nan
21863;BME280;11096;51.338;12.524;2023-03-03T17:06:58;100776.81;;;2.87;nan
21863;BME280;11096;51.338;12.524;2023-03-03T17:10:31;100779.50;;;2.82;nan